sensor_id;sensor_type;location;lat;lon;timestamp;P1;durP1;ratioP1;P2;durP2;ratioP2
64210;SDS011;50528;48.514;14.394;2023-06-10T00:00:06;7.30;;;6.60;;
64210;SDS011;50528;48.514;14.394;2023-06-10T00:01:07;7.80;;;6.70;;
64210;SDS011;50528;48.514;14.394;2023-06-10T00:01:59;7.60;;;6.80;;
64210;SDS011;50528;48.514;14.394;2023-06-10T00:02:33;8.10;;;7.30;;
64210;SDS011;50528;48.514;14.394;2023-06-10T00:03:07;9.40;;;8.20;;
64210;SDS011;50528;48.514;14.394;2023-06-10T00:03:41;8.80;;;7.90;;
64210;SDS011;50528;48.514;14.394;2023-06-10T00:04:16;9.50;;;8.50;;
64210;SDS011;50528;48.514;14.394;2023-06-10T00:04:50;8.70;;;7.80;;
64210;SDS011;50528;48.514;14.394;2023-06-10T00:05:24;8.20;;;7.40;;
64210;SDS011;50528;48.514;14.394;2023-06-10T00:05:57;9.00;;;7.90;;
64210;SDS011;50528;48.514;14.394;2023-06-10T00:06:30;8.60;;;7.70;;
64210;SDS011;50528;48.514;14.394;2023-06-10T00:07:11;9.10;;;8.10;;
64210;SDS011;50528;48.514;14.394;2023-06-10T00:07:44;9.00;;;8.10;;
64210;SDS011;50528;48.514;14.394;2023-06-10T00:08:19;8.50;;;7.60;;
64210;SDS011;50528;48.514;14.394;2023-06-10T00:08:52;9.20;;;7.90;;
64210;SDS011;50528;48.514;14.394;2023-06-10T00:09:26;10.70;;;9.00;;
64210;SDS011;50528;48.514;14.394;2023-06-10T00:10:02;9.50;;;8.40;;
64210;SDS011;50528;48.514;14.394;2023-06-10T00:10:38;9.60;;;8.50;;
64210;SDS011;50528;48.514;14.394;2023-06-10T00:11:15;9.60;;;8.60;;
64210;SDS011;50528;48.514;14.394;2023-06-10T00:11:51;10.20;;;8.50;;
64210;SDS011;50528;48.514;14.394;2023-06-10T00:12:28;11.20;;;10.00;;
64210;SDS011;50528;48.514;14.394;2023-06-10T00:13:04;10.90;;;9.30;;
64210;SDS011;50528;48.514;14.394;2023-06-10T00:13:41;13.20;;;10.00;;
64210;SDS011;50528;48.514;14.394;2023-06-10T00:14:15;13.80;;;10.50;;
64210;SDS011;50528;48.514;14.394;2023-06-10T00:14:49;13.40;;;10.70;;
64210;SDS011;50528;48.514;14.394;2023-06-10T00:15:26;13.10;;;11.10;;
64210;SDS011;50528;48.514;14.394;2023-06-10T00:15:59;15.10;;;11.60;;
64210;SDS011;50528;48.514;14.394;2023-06-10T00:16:33;12.90;;;10.80;;
64210;SDS011;50528;48.514;14.394;2023-06-10T00:17:07;14.10;;;12.10;;
64210;SDS011;50528;48.514;14.394;2023-06-10T00:17:43;12.80;;;10.80;;
64210;SDS011;50528;48.514;14.394;2023-06-10T00:18:16;13.90;;;10.80;;
64210;SDS011;50528;48.514;14.394;2023-06-10T00:18:50;13.30;;;10.50;;
64210;SDS011;50528;48.514;14.394;2023-06-10T00:19:27;12.30;;;10.50;;
64210;SDS011;50528;48.514;14.394;2023-06-10T00:20:03;11.40;;;9.90;;
64210;SDS011;50528;48.514;14.394;2023-06-10T00:20:42;11.70;;;10.40;;
64210;SDS011;50528;48.514;14.394;2023-06-10T00:21:15;11.40;;;10.20;;
64210;SDS011;50528;48.514;14.394;2023-06-10T00:21:48;13.20;;;10.40;;
64210;SDS011;50528;48.514;14.394;2023-06-10T00:22:24;13.30;;;10.50;;
64210;SDS011;50528;48.514;14.394;2023-06-10T00:23:02;14.50;;;10.70;;
64210;SDS011;50528;48.514;14.394;2023-06-10T00:23:35;13.30;;;11.40;;
64210;SDS011;50528;48.514;14.394;2023-06-10T00:24:11;13.20;;;11.60;;
64210;SDS011;50528;48.514;14.394;2023-06-10T00:24:45;14.20;;;11.60;;
64210;SDS011;50528;48.514;14.394;2023-06-10T00:25:18;14.60;;;11.70;;
64210;SDS011;50528;48.514;14.394;2023-06-10T00:25:52;14.90;;;13.00;;
64210;SDS011;50528;48.514;14.394;2023-06-10T00:26:25;16.30;;;12.20;;
64210;SDS011;50528;48.514;14.394;2023-06-10T00:26:59;13.80;;;11.40;;
64210;SDS011;50528;48.514;14.394;2023-06-10T00:27:32;13.50;;;11.60;;
64210;SDS011;50528;48.514;14.394;2023-06-10T00:28:08;14.00;;;11.70;;
64210;SDS011;50528;48.514;14.394;2023-06-10T00:28:41;14.80;;;12.10;;
64210;SDS011;50528;48.514;14.394;2023-06-10T00:29:14;16.10;;;12.40;;
64210;SDS011;50528;48.514;14.394;2023-06-10T00:29:48;17.40;;;12.10;;
64210;SDS011;50528;48.514;14.394;2023-06-10T00:30:22;13.40;;;11.50;;
64210;SDS011;50528;48.514;14.394;2023-06-10T00:30:55;14.60;;;12.10;;
64210;SDS011;50528;48.514;14.394;2023-06-10T00:31:30;15.70;;;12.00;;
64210;SDS011;50528;48.514;14.394;2023-06-10T00:32:04;14.60;;;12.10;;
64210;SDS011;50528;48.514;14.394;2023-06-10T00:32:38;14.60;;;11.60;;
64210;SDS011;50528;48.514;14.394;2023-06-10T00:33:12;12.50;;;11.10;;
64210;SDS011;50528;48.514;14.394;2023-06-10T00:33:45;12.80;;;11.30;;
64210;SDS011;50528;48.514;14.394;2023-06-10T00:34:19;14.30;;;11.70;;
64210;SDS011;50528;48.514;14.394;2023-06-10T00:34:52;14.40;;;12.10;;
64210;SDS011;50528;48.514;14.394;2023-06-10T00:35:25;15.30;;;12.50;;
64210;SDS011;50528;48.514;14.394;2023-06-10T00:35:58;15.50;;;12.60;;
64210;SDS011;50528;48.514;14.394;2023-06-10T00:36:33;16.40;;;13.40;;
64210;SDS011;50528;48.514;14.394;2023-06-10T00:37:08;17.80;;;13.40;;
64210;SDS011;50528;48.514;14.394;2023-06-10T00:37:42;19.70;;;14.00;;
64210;SDS011;50528;48.514;14.394;2023-06-10T00:38:15;18.70;;;14.70;;
64210;SDS011;50528;48.514;14.394;2023-06-10T00:38:48;18.00;;;14.80;;
64210;SDS011;50528;48.514;14.394;2023-06-10T00:39:21;18.90;;;14.50;;
64210;SDS011;50528;48.514;14.394;2023-06-10T00:39:55;17.50;;;14.50;;
64210;SDS011;50528;48.514;14.394;2023-06-10T00:40:28;18.00;;;14.10;;
64210;SDS011;50528;48.514;14.394;2023-06-10T00:41:03;20.20;;;14.40;;
64210;SDS011;50528;48.514;14.394;2023-06-10T00:41:37;18.20;;;14.20;;
64210;SDS011;50528;48.514;14.394;2023-06-10T00:42:10;17.10;;;13.80;;
64210;SDS011;50528;48.514;14.394;2023-06-10T00:42:43;18.20;;;14.10;;
64210;SDS011;50528;48.514;14.394;2023-06-10T00:43:17;17.80;;;14.70;;
64210;SDS011;50528;48.514;14.394;2023-06-10T00:43:54;17.40;;;14.00;;
64210;SDS011;50528;48.514;14.394;2023-06-10T00:44:27;18.10;;;13.60;;
64210;SDS011;50528;48.514;14.394;2023-06-10T00:45:01;19.10;;;14.50;;
64210;SDS011;50528;48.514;14.394;2023-06-10T00:45:34;17.20;;;13.80;;
64210;SDS011;50528;48.514;14.394;2023-06-10T00:46:08;16.60;;;13.30;;
64210;SDS011;50528;48.514;14.394;2023-06-10T00:46:42;17.60;;;13.70;;
64210;SDS011;50528;48.514;14.394;2023-06-10T00:47:16;15.70;;;13.00;;
64210;SDS011;50528;48.514;14.394;2023-06-10T00:47:50;15.00;;;12.90;;
64210;SDS011;50528;48.514;14.394;2023-06-10T00:48:24;17.40;;;13.30;;
64210;SDS011;50528;48.514;14.394;2023-06-10T00:48:58;16.20;;;13.10;;
64210;SDS011;50528;48.514;14.394;2023-06-10T00:49:31;17.40;;;13.80;;
64210;SDS011;50528;48.514;14.394;2023-06-10T00:50:06;17.90;;;13.80;;
64210;SDS011;50528;48.514;14.394;2023-06-10T00:50:40;17.60;;;13.70;;
64210;SDS011;50528;48.514;14.394;2023-06-10T00:51:13;19.40;;;14.80;;
64210;SDS011;50528;48.514;14.394;2023-06-10T00:51:48;16.10;;;13.60;;
64210;SDS011;50528;48.514;14.394;2023-06-10T00:52:24;19.50;;;14.90;;
64210;SDS011;50528;48.514;14.394;2023-06-10T00:53:00;18.00;;;14.40;;
64210;SDS011;50528;48.514;14.394;2023-06-10T00:53:39;18.10;;;13.80;;
64210;SDS011;50528;48.514;14.394;2023-06-10T00:54:14;18.10;;;13.80;;
64210;SDS011;50528;48.514;14.394;2023-06-10T00:54:48;16.60;;;13.30;;
64210;SDS011;50528;48.514;14.394;2023-06-10T00:55:21;17.70;;;14.00;;
64210;SDS011;50528;48.514;14.394;2023-06-10T00:55:56;18.00;;;14.60;;
64210;SDS011;50528;48.514;14.394;2023-06-10T00:56:30;17.10;;;14.20;;
64210;SDS011;50528;48.514;14.394;2023-06-10T00:57:04;18.90;;;14.20;;
64210;SDS011;50528;48.514;14.394;2023-06-10T00:57:40;15.40;;;13.30;;
64210;SDS011;50528;48.514;14.394;2023-06-10T00:58:17;15.80;;;13.00;;
64210;SDS011;50528;48.514;14.394;2023-06-10T00:58:51;15.70;;;12.50;;
64210;SDS011;50528;48.514;14.394;2023-06-10T00:59:25;14.10;;;11.90;;
64210;SDS011;50528;48.514;14.394;2023-06-10T00:59:58;15.80;;;12.40;;
64210;SDS011;50528;48.514;14.394;2023-06-10T01:00:35;14.10;;;11.90;;
64210;SDS011;50528;48.514;14.394;2023-06-10T01:01:08;15.90;;;12.10;;
64210;SDS011;50528;48.514;14.394;2023-06-10T01:01:45;15.20;;;12.50;;
64210;SDS011;50528;48.514;14.394;2023-06-10T01:02:20;15.60;;;12.80;;
64210;SDS011;50528;48.514;14.394;2023-06-10T01:02:54;16.10;;;11.20;;
64210;SDS011;50528;48.514;14.394;2023-06-10T01:03:28;14.10;;;11.70;;
64210;SDS011;50528;48.514;14.394;2023-06-10T01:04:02;13.20;;;11.80;;
64210;SDS011;50528;48.514;14.394;2023-06-10T01:04:36;14.10;;;11.80;;
64210;SDS011;50528;48.514;14.394;2023-06-10T01:05:10;15.80;;;12.70;;
64210;SDS011;50528;48.514;14.394;2023-06-10T01:05:46;15.10;;;12.30;;
64210;SDS011;50528;48.514;14.394;2023-06-10T01:07:28;14.60;;;12.20;;
64210;SDS011;50528;48.514;14.394;2023-06-10T01:09:13;15.80;;;12.40;;
64210;SDS011;50528;48.514;14.394;2023-06-10T01:10:07;16.10;;;12.50;;
64210;SDS011;50528;48.514;14.394;2023-06-10T01:10:53;15.90;;;13.00;;
64210;SDS011;50528;48.514;14.394;2023-06-10T01:11:40;16.50;;;12.80;;
64210;SDS011;50528;48.514;14.394;2023-06-10T01:13:07;16.70;;;13.20;;
64210;SDS011;50528;48.514;14.394;2023-06-10T01:13:46;16.30;;;12.80;;
64210;SDS011;50528;48.514;14.394;2023-06-10T01:14:24;16.20;;;13.10;;
64210;SDS011;50528;48.514;14.394;2023-06-10T01:14:59;14.80;;;12.20;;
64210;SDS011;50528;48.514;14.394;2023-06-10T01:15:34;14.70;;;12.90;;
64210;SDS011;50528;48.514;14.394;2023-06-10T01:16:08;15.60;;;12.40;;
64210;SDS011;50528;48.514;14.394;2023-06-10T01:16:43;14.40;;;12.50;;
64210;SDS011;50528;48.514;14.394;2023-06-10T01:17:18;14.70;;;12.80;;
64210;SDS011;50528;48.514;14.394;2023-06-10T01:17:53;15.30;;;12.10;;
64210;SDS011;50528;48.514;14.394;2023-06-10T01:18:30;13.80;;;12.20;;
64210;SDS011;50528;48.514;14.394;2023-06-10T01:19:04;14.50;;;12.30;;
64210;SDS011;50528;48.514;14.394;2023-06-10T01:19:37;14.40;;;11.80;;
64210;SDS011;50528;48.514;14.394;2023-06-10T01:20:11;15.00;;;11.90;;
64210;SDS011;50528;48.514;14.394;2023-06-10T01:20:46;15.10;;;12.50;;
64210;SDS011;50528;48.514;14.394;2023-06-10T01:21:23;15.00;;;12.90;;
64210;SDS011;50528;48.514;14.394;2023-06-10T01:21:57;13.50;;;11.60;;
64210;SDS011;50528;48.514;14.394;2023-06-10T01:22:33;16.00;;;12.60;;
64210;SDS011;50528;48.514;14.394;2023-06-10T01:23:10;15.50;;;12.30;;
64210;SDS011;50528;48.514;14.394;2023-06-10T01:23:44;14.50;;;11.80;;
64210;SDS011;50528;48.514;14.394;2023-06-10T01:24:17;14.90;;;12.90;;
64210;SDS011;50528;48.514;14.394;2023-06-10T01:24:52;16.40;;;13.70;;
64210;SDS011;50528;48.514;14.394;2023-06-10T01:25:26;16.50;;;12.40;;
64210;SDS011;50528;48.514;14.394;2023-06-10T01:26:02;14.90;;;12.90;;
64210;SDS011;50528;48.514;14.394;2023-06-10T01:26:41;16.20;;;12.90;;
64210;SDS011;50528;48.514;14.394;2023-06-10T01:27:16;17.00;;;13.20;;
64210;SDS011;50528;48.514;14.394;2023-06-10T01:27:58;14.40;;;12.40;;
64210;SDS011;50528;48.514;14.394;2023-06-10T01:28:41;15.40;;;13.00;;
64210;SDS011;50528;48.514;14.394;2023-06-10T01:29:28;16.70;;;13.70;;
64210;SDS011;50528;48.514;14.394;2023-06-10T01:30:08;16.70;;;13.10;;
64210;SDS011;50528;48.514;14.394;2023-06-10T01:31:46;15.90;;;12.60;;
64210;SDS011;50528;48.514;14.394;2023-06-10T01:32:35;15.80;;;12.50;;
64210;SDS011;50528;48.514;14.394;2023-06-10T01:33:13;16.30;;;12.10;;
64210;SDS011;50528;48.514;14.394;2023-06-10T01:33:51;15.70;;;12.10;;
64210;SDS011;50528;48.514;14.394;2023-06-10T01:34:26;14.70;;;12.30;;
64210;SDS011;50528;48.514;14.394;2023-06-10T01:35:00;16.30;;;13.10;;
64210;SDS011;50528;48.514;14.394;2023-06-10T01:35:36;14.40;;;12.20;;
64210;SDS011;50528;48.514;14.394;2023-06-10T01:36:11;14.50;;;12.50;;
64210;SDS011;50528;48.514;14.394;2023-06-10T01:36:47;16.60;;;13.10;;
64210;SDS011;50528;48.514;14.394;2023-06-10T01:37:22;15.40;;;12.40;;
64210;SDS011;50528;48.514;14.394;2023-06-10T01:37:57;15.00;;;13.20;;
64210;SDS011;50528;48.514;14.394;2023-06-10T01:38:36;15.70;;;12.80;;
64210;SDS011;50528;48.514;14.394;2023-06-10T01:39:15;14.10;;;12.40;;
64210;SDS011;50528;48.514;14.394;2023-06-10T01:39:50;16.10;;;12.60;;
64210;SDS011;50528;48.514;14.394;2023-06-10T01:40:25;14.30;;;12.10;;
64210;SDS011;50528;48.514;14.394;2023-06-10T01:40:59;13.30;;;11.90;;
64210;SDS011;50528;48.514;14.394;2023-06-10T01:41:33;15.40;;;12.50;;
64210;SDS011;50528;48.514;14.394;2023-06-10T01:42:09;14.30;;;12.70;;
64210;SDS011;50528;48.514;14.394;2023-06-10T01:42:44;14.40;;;12.90;;
64210;SDS011;50528;48.514;14.394;2023-06-10T01:43:18;15.30;;;12.80;;
64210;SDS011;50528;48.514;14.394;2023-06-10T01:43:53;13.90;;;12.10;;
64210;SDS011;50528;48.514;14.394;2023-06-10T01:44:27;15.90;;;12.70;;
64210;SDS011;50528;48.514;14.394;2023-06-10T01:45:01;13.80;;;12.20;;
64210;SDS011;50528;48.514;14.394;2023-06-10T01:45:34;14.10;;;12.50;;
64210;SDS011;50528;48.514;14.394;2023-06-10T01:46:07;14.40;;;12.50;;
64210;SDS011;50528;48.514;14.394;2023-06-10T01:46:41;14.40;;;12.30;;
64210;SDS011;50528;48.514;14.394;2023-06-10T01:47:16;13.40;;;12.00;;
64210;SDS011;50528;48.514;14.394;2023-06-10T01:47:50;13.60;;;12.20;;
64210;SDS011;50528;48.514;14.394;2023-06-10T01:48:24;17.20;;;12.30;;
64210;SDS011;50528;48.514;14.394;2023-06-10T01:48:57;13.60;;;11.80;;
64210;SDS011;50528;48.514;14.394;2023-06-10T01:51:16;15.00;;;11.90;;
64210;SDS011;50528;48.514;14.394;2023-06-10T01:51:50;13.30;;;11.90;;
64210;SDS011;50528;48.514;14.394;2023-06-10T01:52:24;13.10;;;11.50;;
64210;SDS011;50528;48.514;14.394;2023-06-10T01:52:59;13.40;;;11.80;;
64210;SDS011;50528;48.514;14.394;2023-06-10T01:53:33;13.60;;;12.00;;
64210;SDS011;50528;48.514;14.394;2023-06-10T01:54:06;13.00;;;11.60;;
64210;SDS011;50528;48.514;14.394;2023-06-10T01:54:40;13.00;;;11.70;;
64210;SDS011;50528;48.514;14.394;2023-06-10T01:55:13;14.00;;;11.90;;
64210;SDS011;50528;48.514;14.394;2023-06-10T01:55:46;15.30;;;11.90;;
64210;SDS011;50528;48.514;14.394;2023-06-10T01:56:20;14.10;;;11.80;;
64210;SDS011;50528;48.514;14.394;2023-06-10T01:56:54;12.60;;;11.20;;
64210;SDS011;50528;48.514;14.394;2023-06-10T01:57:27;15.10;;;11.10;;
64210;SDS011;50528;48.514;14.394;2023-06-10T01:58:01;12.50;;;11.20;;
64210;SDS011;50528;48.514;14.394;2023-06-10T01:58:34;13.00;;;10.60;;
64210;SDS011;50528;48.514;14.394;2023-06-10T01:59:07;12.80;;;11.50;;
64210;SDS011;50528;48.514;14.394;2023-06-10T01:59:41;14.00;;;10.80;;
64210;SDS011;50528;48.514;14.394;2023-06-10T02:00:17;13.30;;;11.50;;
64210;SDS011;50528;48.514;14.394;2023-06-10T02:00:50;13.90;;;11.40;;
64210;SDS011;50528;48.514;14.394;2023-06-10T02:01:24;13.10;;;11.40;;
64210;SDS011;50528;48.514;14.394;2023-06-10T02:01:58;12.70;;;11.40;;
64210;SDS011;50528;48.514;14.394;2023-06-10T02:02:32;13.90;;;11.10;;
64210;SDS011;50528;48.514;14.394;2023-06-10T02:03:06;13.50;;;11.10;;
64210;SDS011;50528;48.514;14.394;2023-06-10T02:03:41;14.00;;;11.60;;
64210;SDS011;50528;48.514;14.394;2023-06-10T02:04:14;13.60;;;11.20;;
64210;SDS011;50528;48.514;14.394;2023-06-10T02:04:48;12.60;;;10.80;;
64210;SDS011;50528;48.514;14.394;2023-06-10T02:05:21;15.60;;;11.70;;
64210;SDS011;50528;48.514;14.394;2023-06-10T02:05:54;12.90;;;11.60;;
64210;SDS011;50528;48.514;14.394;2023-06-10T02:06:28;13.70;;;11.80;;
64210;SDS011;50528;48.514;14.394;2023-06-10T02:07:01;12.40;;;11.10;;
64210;SDS011;50528;48.514;14.394;2023-06-10T02:07:37;13.00;;;11.70;;
64210;SDS011;50528;48.514;14.394;2023-06-10T02:08:11;13.10;;;11.70;;
64210;SDS011;50528;48.514;14.394;2023-06-10T02:08:44;12.70;;;11.40;;
64210;SDS011;50528;48.514;14.394;2023-06-10T02:09:17;12.80;;;11.50;;
64210;SDS011;50528;48.514;14.394;2023-06-10T02:09:51;12.90;;;11.50;;
64210;SDS011;50528;48.514;14.394;2023-06-10T02:10:25;15.10;;;11.00;;
64210;SDS011;50528;48.514;14.394;2023-06-10T02:10:58;12.90;;;11.60;;
64210;SDS011;50528;48.514;14.394;2023-06-10T02:11:34;12.60;;;11.10;;
64210;SDS011;50528;48.514;14.394;2023-06-10T02:12:08;14.20;;;11.20;;
64210;SDS011;50528;48.514;14.394;2023-06-10T02:12:43;17.70;;;11.60;;
64210;SDS011;50528;48.514;14.394;2023-06-10T02:13:16;13.00;;;11.50;;
64210;SDS011;50528;48.514;14.394;2023-06-10T02:13:50;13.20;;;11.80;;
64210;SDS011;50528;48.514;14.394;2023-06-10T02:14:23;13.70;;;11.20;;
64210;SDS011;50528;48.514;14.394;2023-06-10T02:14:57;12.80;;;11.50;;
64210;SDS011;50528;48.514;14.394;2023-06-10T02:15:30;13.40;;;12.00;;
64210;SDS011;50528;48.514;14.394;2023-06-10T02:16:04;13.50;;;12.10;;
64210;SDS011;50528;48.514;14.394;2023-06-10T02:16:38;13.50;;;11.50;;
64210;SDS011;50528;48.514;14.394;2023-06-10T02:17:12;13.50;;;11.20;;
64210;SDS011;50528;48.514;14.394;2023-06-10T02:17:47;13.30;;;11.60;;
64210;SDS011;50528;48.514;14.394;2023-06-10T02:18:23;12.60;;;11.00;;
64210;SDS011;50528;48.514;14.394;2023-06-10T02:18:56;13.70;;;11.70;;
64210;SDS011;50528;48.514;14.394;2023-06-10T02:19:33;13.10;;;11.50;;
64210;SDS011;50528;48.514;14.394;2023-06-10T02:20:09;12.70;;;11.40;;
64210;SDS011;50528;48.514;14.394;2023-06-10T02:20:43;14.00;;;12.30;;
64210;SDS011;50528;48.514;14.394;2023-06-10T02:21:17;13.20;;;11.80;;
64210;SDS011;50528;48.514;14.394;2023-06-10T02:21:50;13.10;;;11.70;;
64210;SDS011;50528;48.514;14.394;2023-06-10T02:22:23;13.20;;;11.60;;
64210;SDS011;50528;48.514;14.394;2023-06-10T02:22:58;12.60;;;11.30;;
64210;SDS011;50528;48.514;14.394;2023-06-10T02:23:34;12.80;;;11.10;;
64210;SDS011;50528;48.514;14.394;2023-06-10T02:24:09;17.50;;;12.20;;
64210;SDS011;50528;48.514;14.394;2023-06-10T02:24:42;17.60;;;11.80;;
64210;SDS011;50528;48.514;14.394;2023-06-10T02:25:16;18.10;;;11.50;;
64210;SDS011;50528;48.514;14.394;2023-06-10T02:25:49;16.40;;;12.10;;
64210;SDS011;50528;48.514;14.394;2023-06-10T02:26:23;22.40;;;11.80;;
64210;SDS011;50528;48.514;14.394;2023-06-10T02:26:58;16.40;;;11.70;;
64210;SDS011;50528;48.514;14.394;2023-06-10T02:27:33;14.00;;;11.90;;
64210;SDS011;50528;48.514;14.394;2023-06-10T02:28:07;12.40;;;11.10;;
64210;SDS011;50528;48.514;14.394;2023-06-10T02:28:43;13.60;;;11.60;;
64210;SDS011;50528;48.514;14.394;2023-06-10T02:29:17;14.60;;;11.90;;
64210;SDS011;50528;48.514;14.394;2023-06-10T02:29:51;13.20;;;11.70;;
64210;SDS011;50528;48.514;14.394;2023-06-10T02:30:24;12.10;;;10.80;;
64210;SDS011;50528;48.514;14.394;2023-06-10T02:30:58;12.70;;;11.40;;
64210;SDS011;50528;48.514;14.394;2023-06-10T02:31:32;13.90;;;11.40;;
64210;SDS011;50528;48.514;14.394;2023-06-10T02:32:09;13.10;;;11.20;;
64210;SDS011;50528;48.514;14.394;2023-06-10T02:32:46;13.10;;;11.70;;
64210;SDS011;50528;48.514;14.394;2023-06-10T02:33:22;13.30;;;11.80;;
64210;SDS011;50528;48.514;14.394;2023-06-10T02:33:57;14.20;;;12.40;;
64210;SDS011;50528;48.514;14.394;2023-06-10T02:34:30;14.30;;;12.80;;
64210;SDS011;50528;48.514;14.394;2023-06-10T02:35:04;13.90;;;12.10;;
64210;SDS011;50528;48.514;14.394;2023-06-10T02:35:39;17.30;;;13.10;;
64210;SDS011;50528;48.514;14.394;2023-06-10T02:36:12;14.70;;;13.10;;
64210;SDS011;50528;48.514;14.394;2023-06-10T02:36:46;15.80;;;13.30;;
64210;SDS011;50528;48.514;14.394;2023-06-10T02:37:22;16.00;;;13.50;;
64210;SDS011;50528;48.514;14.394;2023-06-10T02:37:55;15.90;;;14.20;;
64210;SDS011;50528;48.514;14.394;2023-06-10T02:38:28;16.20;;;13.60;;
64210;SDS011;50528;48.514;14.394;2023-06-10T02:39:03;15.80;;;13.50;;
64210;SDS011;50528;48.514;14.394;2023-06-10T02:39:37;15.30;;;13.60;;
64210;SDS011;50528;48.514;14.394;2023-06-10T02:40:13;15.80;;;13.80;;
64210;SDS011;50528;48.514;14.394;2023-06-10T02:40:46;15.00;;;13.30;;
64210;SDS011;50528;48.514;14.394;2023-06-10T02:41:22;16.00;;;13.60;;
64210;SDS011;50528;48.514;14.394;2023-06-10T02:41:57;16.00;;;13.40;;
64210;SDS011;50528;48.514;14.394;2023-06-10T02:42:30;14.80;;;13.10;;
64210;SDS011;50528;48.514;14.394;2023-06-10T02:43:04;15.90;;;13.20;;
64210;SDS011;50528;48.514;14.394;2023-06-10T02:43:40;14.30;;;12.70;;
64210;SDS011;50528;48.514;14.394;2023-06-10T02:44:13;16.70;;;12.90;;
64210;SDS011;50528;48.514;14.394;2023-06-10T02:44:47;13.70;;;11.80;;
64210;SDS011;50528;48.514;14.394;2023-06-10T02:45:26;13.90;;;12.50;;
64210;SDS011;50528;48.514;14.394;2023-06-10T02:45:59;13.50;;;12.10;;
64210;SDS011;50528;48.514;14.394;2023-06-10T02:46:33;14.00;;;12.50;;
64210;SDS011;50528;48.514;14.394;2023-06-10T02:47:07;14.30;;;12.50;;
64210;SDS011;50528;48.514;14.394;2023-06-10T02:47:41;12.90;;;11.50;;
64210;SDS011;50528;48.514;14.394;2023-06-10T02:48:15;13.90;;;12.50;;
64210;SDS011;50528;48.514;14.394;2023-06-10T02:48:49;13.40;;;11.80;;
64210;SDS011;50528;48.514;14.394;2023-06-10T02:49:26;16.60;;;11.70;;
64210;SDS011;50528;48.514;14.394;2023-06-10T02:50:04;14.00;;;12.20;;
64210;SDS011;50528;48.514;14.394;2023-06-10T02:50:39;13.30;;;11.80;;
64210;SDS011;50528;48.514;14.394;2023-06-10T02:51:30;14.90;;;11.80;;
64210;SDS011;50528;48.514;14.394;2023-06-10T02:52:05;15.30;;;11.90;;
64210;SDS011;50528;48.514;14.394;2023-06-10T02:52:40;13.90;;;11.70;;
64210;SDS011;50528;48.514;14.394;2023-06-10T02:53:14;13.90;;;11.80;;
64210;SDS011;50528;48.514;14.394;2023-06-10T02:53:50;13.50;;;12.10;;
64210;SDS011;50528;48.514;14.394;2023-06-10T02:54:23;13.80;;;12.40;;
64210;SDS011;50528;48.514;14.394;2023-06-10T02:54:57;13.80;;;12.30;;
64210;SDS011;50528;48.514;14.394;2023-06-10T02:55:31;13.60;;;12.20;;
64210;SDS011;50528;48.514;14.394;2023-06-10T02:56:06;15.00;;;12.60;;
64210;SDS011;50528;48.514;14.394;2023-06-10T02:56:40;14.30;;;12.80;;
64210;SDS011;50528;48.514;14.394;2023-06-10T02:57:19;16.00;;;12.90;;
64210;SDS011;50528;48.514;14.394;2023-06-10T02:57:52;14.40;;;12.80;;
64210;SDS011;50528;48.514;14.394;2023-06-10T02:58:27;14.70;;;13.20;;
64210;SDS011;50528;48.514;14.394;2023-06-10T02:59:01;14.30;;;12.30;;
64210;SDS011;50528;48.514;14.394;2023-06-10T02:59:35;14.50;;;12.90;;
64210;SDS011;50528;48.514;14.394;2023-06-10T03:00:09;14.10;;;12.50;;
64210;SDS011;50528;48.514;14.394;2023-06-10T03:00:44;16.10;;;12.90;;
64210;SDS011;50528;48.514;14.394;2023-06-10T03:01:18;14.80;;;13.00;;
64210;SDS011;50528;48.514;14.394;2023-06-10T03:02:05;14.90;;;12.70;;
64210;SDS011;50528;48.514;14.394;2023-06-10T03:02:43;14.20;;;12.70;;
64210;SDS011;50528;48.514;14.394;2023-06-10T03:03:19;14.80;;;12.80;;
64210;SDS011;50528;48.514;14.394;2023-06-10T03:04:00;14.20;;;12.10;;
64210;SDS011;50528;48.514;14.394;2023-06-10T03:04:34;14.60;;;13.00;;
64210;SDS011;50528;48.514;14.394;2023-06-10T03:05:10;14.80;;;12.70;;
64210;SDS011;50528;48.514;14.394;2023-06-10T03:05:45;14.60;;;13.10;;
64210;SDS011;50528;48.514;14.394;2023-06-10T03:06:22;15.50;;;12.70;;
64210;SDS011;50528;48.514;14.394;2023-06-10T03:06:58;16.00;;;13.50;;
64210;SDS011;50528;48.514;14.394;2023-06-10T03:07:36;15.70;;;13.30;;
64210;SDS011;50528;48.514;14.394;2023-06-10T03:08:10;16.40;;;13.70;;
64210;SDS011;50528;48.514;14.394;2023-06-10T03:08:44;15.10;;;13.30;;
64210;SDS011;50528;48.514;14.394;2023-06-10T03:09:20;16.00;;;13.50;;
64210;SDS011;50528;48.514;14.394;2023-06-10T03:09:55;15.50;;;13.50;;
64210;SDS011;50528;48.514;14.394;2023-06-10T03:10:28;18.10;;;14.30;;
64210;SDS011;50528;48.514;14.394;2023-06-10T03:11:02;15.90;;;13.60;;
64210;SDS011;50528;48.514;14.394;2023-06-10T03:11:35;15.70;;;13.60;;
64210;SDS011;50528;48.514;14.394;2023-06-10T03:12:09;17.10;;;14.30;;
64210;SDS011;50528;48.514;14.394;2023-06-10T03:12:46;16.40;;;13.90;;
64210;SDS011;50528;48.514;14.394;2023-06-10T03:13:19;17.60;;;14.70;;
64210;SDS011;50528;48.514;14.394;2023-06-10T03:13:54;16.20;;;14.20;;
64210;SDS011;50528;48.514;14.394;2023-06-10T03:14:28;16.20;;;13.60;;
64210;SDS011;50528;48.514;14.394;2023-06-10T03:15:02;17.10;;;14.70;;
64210;SDS011;50528;48.514;14.394;2023-06-10T03:15:37;19.00;;;15.20;;
64210;SDS011;50528;48.514;14.394;2023-06-10T03:16:45;18.00;;;14.00;;
64210;SDS011;50528;48.514;14.394;2023-06-10T03:17:19;17.60;;;14.10;;
64210;SDS011;50528;48.514;14.394;2023-06-10T03:17:53;18.90;;;13.90;;
64210;SDS011;50528;48.514;14.394;2023-06-10T03:18:27;17.30;;;14.50;;
64210;SDS011;50528;48.514;14.394;2023-06-10T03:19:00;18.40;;;14.70;;
64210;SDS011;50528;48.514;14.394;2023-06-10T03:19:34;19.10;;;14.50;;
64210;SDS011;50528;48.514;14.394;2023-06-10T03:20:11;17.20;;;14.40;;
64210;SDS011;50528;48.514;14.394;2023-06-10T03:20:45;20.40;;;15.40;;
64210;SDS011;50528;48.514;14.394;2023-06-10T03:21:19;17.40;;;14.60;;
64210;SDS011;50528;48.514;14.394;2023-06-10T03:22:44;20.70;;;14.20;;
64210;SDS011;50528;48.514;14.394;2023-06-10T03:23:18;18.40;;;15.00;;
64210;SDS011;50528;48.514;14.394;2023-06-10T03:23:51;18.70;;;14.50;;
64210;SDS011;50528;48.514;14.394;2023-06-10T03:24:24;20.70;;;15.50;;
64210;SDS011;50528;48.514;14.394;2023-06-10T03:24:58;21.60;;;15.80;;
64210;SDS011;50528;48.514;14.394;2023-06-10T03:25:33;21.20;;;15.50;;
64210;SDS011;50528;48.514;14.394;2023-06-10T03:26:06;20.20;;;15.50;;
64210;SDS011;50528;48.514;14.394;2023-06-10T03:26:42;20.20;;;15.80;;
64210;SDS011;50528;48.514;14.394;2023-06-10T03:27:15;18.40;;;15.00;;
64210;SDS011;50528;48.514;14.394;2023-06-10T03:27:50;17.80;;;15.10;;
64210;SDS011;50528;48.514;14.394;2023-06-10T03:28:26;22.10;;;15.70;;
64210;SDS011;50528;48.514;14.394;2023-06-10T03:29:00;21.20;;;15.70;;
64210;SDS011;50528;48.514;14.394;2023-06-10T03:29:33;22.40;;;16.20;;